Terminal Aerodrome Forecast
Issued by NWS Wilmington, OH

Home | Current Version | Previous Version | Text Only | Print | Product List | Glossary On
Versions: 1 2 3 4 5 6 7 8 9 10 11 12 13 14 15 16 17
000
FTUS41 KILN 301700
TAFCMH
TAF
KCMH 301740Z 3018/3118 VRB02KT P6SM BKN040
     FM311300 23006KT P6SM BKN050 OVC080
     FM311600 26009KT 5SM -SHRA BR BKN025 OVC050=

USA.gov is the U.S. government's official web portal to all federal, state and local government web resources and services.